createdAt,value
2017-10-06T00:01:50.877Z,99159.22
2017-10-06T00:04:18.328Z,99159.18
2017-10-06T00:06:45.809Z,99167.47
2017-10-06T00:09:13.282Z,99180.20
2017-10-06T00:11:40.780Z,99179.36
2017-10-06T00:14:08.269Z,99175.52
2017-10-06T00:16:35.734Z,99181.12
2017-10-06T00:19:03.253Z,99180.59
2017-10-06T00:21:30.717Z,99175.37
2017-10-06T00:23:58.217Z,99170.62
2017-10-06T00:26:25.667Z,99185.19
2017-10-06T00:28:53.158Z,99184.52
2017-10-06T00:31:20.635Z,99180.72
2017-10-06T00:33:48.116Z,99173.23
2017-10-06T00:36:15.587Z,99183.23
2017-10-06T00:38:43.045Z,99180.05
2017-10-06T00:41:10.524Z,99174.22
2017-10-06T00:43:37.981Z,99180.90
2017-10-06T00:46:05.460Z,99184.47
2017-10-06T00:48:32.910Z,99177.91
2017-10-06T00:51:00.416Z,99184.11
2017-10-06T00:53:27.891Z,99187.16
2017-10-06T00:55:55.403Z,99185.11
2017-10-06T00:58:22.892Z,99195.33
2017-10-06T01:00:50.349Z,99190.02
2017-10-06T01:03:17.843Z,99191.48
2017-10-06T01:05:45.294Z,99189.98
2017-10-06T01:08:12.825Z,99184.02
2017-10-06T01:10:40.286Z,99179.00
2017-10-06T01:13:07.773Z,99177.83
2017-10-06T01:15:35.227Z,99181.99
2017-10-06T01:18:02.727Z,99170.50
2017-10-06T01:20:30.176Z,99172.38
2017-10-06T01:22:57.637Z,99169.87
2017-10-06T01:25:25.092Z,99167.58
2017-10-06T01:27:52.580Z,99161.25
2017-10-06T01:30:20.052Z,99148.73
2017-10-06T01:32:47.500Z,99156.71
2017-10-06T01:35:14.983Z,99159.91
2017-10-06T01:37:42.466Z,99162.31
2017-10-06T01:40:09.938Z,99162.45
2017-10-06T01:42:37.390Z,99163.00
2017-10-06T01:45:04.865Z,99159.16
2017-10-06T01:47:32.338Z,99148.24
2017-10-06T01:49:59.828Z,99145.38
2017-10-06T01:52:27.284Z,99144.72
2017-10-06T01:54:54.778Z,99145.57
2017-10-06T01:57:22.272Z,99143.39
2017-10-06T01:59:49.724Z,99145.84
2017-10-06T02:02:17.549Z,99148.63
2017-10-06T02:04:45.004Z,99149.36
2017-10-06T02:07:12.485Z,99150.09
2017-10-06T02:09:39.951Z,99148.89
2017-10-06T02:12:07.432Z,99150.05
2017-10-06T02:14:34.905Z,99147.45
2017-10-06T02:17:02.348Z,99151.85
2017-10-06T02:19:29.848Z,99149.00
2017-10-06T02:21:57.301Z,99144.45
2017-10-06T02:24:24.772Z,99143.80
2017-10-06T02:26:52.262Z,99143.91
2017-10-06T02:29:19.757Z,99150.56
2017-10-06T02:31:47.209Z,99150.81
2017-10-06T02:34:14.695Z,99145.30
2017-10-06T02:36:42.190Z,99157.95
2017-10-06T02:39:09.681Z,99151.73
2017-10-06T02:41:37.159Z,99157.55
2017-10-06T02:44:04.614Z,99151.70
2017-10-06T02:46:32.091Z,99146.36
2017-10-06T02:48:59.566Z,99147.83
2017-10-06T02:51:27.052Z,99144.67
2017-10-06T02:53:54.531Z,99150.62
2017-10-06T02:56:22.033Z,99149.25
2017-10-06T02:58:49.492Z,99148.59
2017-10-06T03:01:16.990Z,99145.26
2017-10-06T03:03:44.455Z,99145.05
2017-10-06T03:06:11.921Z,99152.31
2017-10-06T03:08:39.400Z,99149.84
2017-10-06T03:11:06.862Z,99163.66
2017-10-06T03:13:34.336Z,99153.67
2017-10-06T03:16:01.814Z,99161.25
2017-10-06T03:18:29.332Z,99155.43
2017-10-06T03:20:56.787Z,99161.61
2017-10-06T03:23:24.317Z,99159.19
2017-10-06T03:25:51.752Z,99167.63
2017-10-06T03:28:19.252Z,99155.83
2017-10-06T03:30:46.721Z,99151.81
2017-10-06T03:33:14.206Z,99150.38
2017-10-06T03:35:41.656Z,99161.75
2017-10-06T03:38:09.139Z,99151.78
2017-10-06T03:40:36.593Z,99149.60
2017-10-06T03:43:04.070Z,99148.80
2017-10-06T03:45:31.549Z,99148.67
2017-10-06T03:47:59.003Z,99143.91
2017-10-06T03:50:26.475Z,99145.72
2017-10-06T03:52:53.925Z,99138.88
2017-10-06T03:55:21.412Z,99138.86
2017-10-06T03:57:48.865Z,99143.45
2017-10-06T04:00:16.345Z,99144.97
2017-10-06T04:02:43.810Z,99148.41
2017-10-06T04:05:11.317Z,99144.03
2017-10-06T04:07:38.802Z,99149.02
2017-10-06T04:10:06.261Z,99155.07
2017-10-06T04:12:33.745Z,99154.48
2017-10-06T04:15:01.213Z,99160.72
2017-10-06T04:17:28.737Z,99161.02
2017-10-06T04:19:56.194Z,99163.48
2017-10-06T04:22:23.666Z,99157.24
2017-10-06T04:24:51.134Z,99155.70
2017-10-06T04:27:18.655Z,99153.66
2017-10-06T04:29:46.144Z,99160.86
2017-10-06T04:32:14.677Z,99161.64
2017-10-06T04:34:42.199Z,99160.40
2017-10-06T04:37:09.654Z,99165.94
2017-10-06T04:39:37.141Z,99160.72
2017-10-06T04:42:04.619Z,99159.30
2017-10-06T04:44:32.097Z,99164.33
2017-10-06T04:46:59.584Z,99163.15
2017-10-06T04:49:27.069Z,99161.84
2017-10-06T04:51:54.533Z,99158.01
2017-10-06T04:54:22.041Z,99147.77
2017-10-06T04:56:49.552Z,99154.60
2017-10-06T04:59:17.033Z,99158.02
2017-10-06T05:01:44.496Z,99165.30
2017-10-06T05:04:11.995Z,99168.57
2017-10-06T05:06:41.598Z,99158.20
2017-10-06T05:09:09.089Z,99170.81
2017-10-06T05:11:37.610Z,99170.93
2017-10-06T05:14:05.125Z,99166.23
2017-10-06T05:16:32.613Z,99170.35
2017-10-06T05:19:00.089Z,99170.39
2017-10-06T05:21:27.611Z,99180.25
2017-10-06T05:23:55.132Z,99182.31
2017-10-06T05:26:22.752Z,99176.50
2017-10-06T05:28:50.383Z,99182.66
2017-10-06T05:31:17.978Z,99180.25
2017-10-06T05:33:45.441Z,99180.68
2017-10-06T05:36:12.913Z,99184.84
2017-10-06T05:38:40.449Z,99189.00
2017-10-06T05:41:07.902Z,99187.70
2017-10-06T05:43:35.541Z,99187.94
2017-10-06T05:46:03.004Z,99184.84
2017-10-06T05:48:30.465Z,99188.66
2017-10-06T05:50:57.958Z,99189.66
2017-10-06T05:53:25.404Z,99190.83
2017-10-06T05:55:52.894Z,99190.45
2017-10-06T05:58:20.387Z,99193.23
2017-10-06T06:00:47.905Z,99195.33
2017-10-06T06:03:15.391Z,99193.78
2017-10-06T06:05:42.897Z,99189.05
2017-10-06T06:08:14.273Z,99202.24
2017-10-06T06:10:41.757Z,99192.95
2017-10-06T06:13:09.260Z,99205.48
2017-10-06T06:15:36.741Z,99202.50
2017-10-06T06:18:04.222Z,99203.05
2017-10-06T06:20:32.445Z,99204.28
2017-10-06T06:23:00.001Z,99201.41
2017-10-06T06:25:27.516Z,99209.33
2017-10-06T06:27:55.007Z,99205.77
2017-10-06T06:30:22.460Z,99206.45
2017-10-06T06:32:49.946Z,99204.53
2017-10-06T06:35:17.506Z,99195.00
2017-10-06T06:37:45.017Z,99194.56
2017-10-06T06:40:12.512Z,99204.55
2017-10-06T06:42:40.041Z,99198.27
2017-10-06T06:45:07.584Z,99211.16
2017-10-06T06:47:35.077Z,99200.36
2017-10-06T06:50:02.550Z,99199.75
2017-10-06T06:52:30.041Z,99207.31
2017-10-06T06:54:57.912Z,99202.34
2017-10-06T06:57:25.438Z,99207.64
2017-10-06T06:59:52.913Z,99200.94
2017-10-06T07:02:20.395Z,99208.34
2017-10-06T07:04:47.875Z,99200.05
2017-10-06T07:07:15.504Z,99206.95
2017-10-06T07:09:44.319Z,99204.55
2017-10-06T07:12:11.830Z,99221.47
2017-10-06T07:14:39.292Z,99220.93
2017-10-06T07:17:06.799Z,99220.70
2017-10-06T07:19:34.342Z,99218.10
2017-10-06T07:22:01.807Z,99211.92
2017-10-06T07:24:29.306Z,99220.52
2017-10-06T07:26:56.773Z,99226.01
2017-10-06T07:29:24.309Z,99227.44
2017-10-06T07:31:51.788Z,99229.19
2017-10-06T07:34:19.299Z,99235.05
2017-10-06T07:36:46.786Z,99237.46
2017-10-06T07:39:14.303Z,99237.41
2017-10-06T07:41:41.856Z,99239.27
2017-10-06T07:44:09.312Z,99238.95
2017-10-06T07:46:36.801Z,99240.58
2017-10-06T07:49:04.297Z,99246.95
2017-10-06T07:51:31.825Z,99250.98
2017-10-06T07:53:59.632Z,99256.67
2017-10-06T07:56:27.131Z,99258.96
2017-10-06T07:58:54.610Z,99258.61
2017-10-06T08:01:23.269Z,99254.53
2017-10-06T08:03:50.751Z,99253.63
2017-10-06T08:06:18.278Z,99251.50
2017-10-06T08:08:45.763Z,99256.67
2017-10-06T08:11:13.222Z,99258.78
2017-10-06T08:13:41.255Z,99262.50
2017-10-06T08:16:08.725Z,99257.75
2017-10-06T08:18:36.711Z,99251.66
2017-10-06T08:21:04.818Z,99258.03
2017-10-06T08:23:32.340Z,99265.03
2017-10-06T08:25:59.833Z,99261.70
2017-10-06T08:28:27.330Z,99261.29
2017-10-06T08:30:54.905Z,99267.25
2017-10-06T08:33:22.412Z,99274.16
2017-10-06T08:35:49.875Z,99286.47
2017-10-06T08:38:22.194Z,99281.69
2017-10-06T08:40:49.696Z,99288.12
2017-10-06T08:43:18.487Z,99289.19
2017-10-06T08:45:45.959Z,99303.53
2017-10-06T08:48:13.449Z,99295.11
2017-10-06T08:50:40.937Z,99302.55
2017-10-06T08:53:08.446Z,99300.48
2017-10-06T08:55:35.930Z,99299.84
2017-10-06T08:58:04.479Z,99301.72
2017-10-06T09:00:31.993Z,99313.36
2017-10-06T09:02:59.513Z,99310.02
2017-10-06T09:05:27.117Z,99306.99
2017-10-06T09:07:54.582Z,99311.81
2017-10-06T09:10:22.026Z,99315.27
2017-10-06T09:12:49.538Z,99317.66
2017-10-06T09:15:17.103Z,99311.59
2017-10-06T09:17:44.583Z,99301.64
2017-10-06T09:20:12.065Z,99315.06
2017-10-06T09:22:39.604Z,99315.78
2017-10-06T09:25:07.085Z,99315.05
2017-10-06T09:27:34.607Z,99319.13
2017-10-06T09:30:02.072Z,99319.11
2017-10-06T09:32:29.557Z,99322.95
2017-10-06T09:34:57.048Z,99314.03
2017-10-06T09:37:24.552Z,99330.91
2017-10-06T09:39:52.021Z,99322.31
2017-10-06T09:42:19.525Z,99326.60
2017-10-06T09:44:46.977Z,99333.52
2017-10-06T09:47:14.478Z,99323.84
2017-10-06T09:49:41.961Z,99327.05
2017-10-06T09:52:09.421Z,99333.48
2017-10-06T09:54:37.688Z,99337.49
2017-10-06T09:57:05.167Z,99342.02
2017-10-06T09:59:32.688Z,99338.70
2017-10-06T10:02:00.181Z,99340.31
2017-10-06T10:04:27.671Z,99350.45
2017-10-06T10:06:55.160Z,99345.68
2017-10-06T10:09:22.909Z,99355.86
2017-10-06T10:11:50.393Z,99356.64
2017-10-06T10:14:17.876Z,99349.62
2017-10-06T10:16:46.320Z,99356.73
2017-10-06T10:19:13.807Z,99353.66
2017-10-06T10:21:41.316Z,99353.99
2017-10-06T10:24:08.804Z,99353.75
2017-10-06T10:26:36.300Z,99358.25
2017-10-06T10:29:03.781Z,99366.61
2017-10-06T10:31:31.265Z,99375.67
2017-10-06T10:33:58.817Z,99362.38
2017-10-06T10:36:26.379Z,99378.91
2017-10-06T10:38:53.921Z,99380.61
2017-10-06T10:41:21.393Z,99376.85
2017-10-06T10:43:48.944Z,99383.43
2017-10-06T10:46:16.408Z,99380.54
2017-10-06T10:48:43.922Z,99381.70
2017-10-06T10:51:11.466Z,99396.45
2017-10-06T10:53:38.961Z,99389.73
2017-10-06T10:56:06.446Z,99380.94
2017-10-06T10:58:33.921Z,99377.38
2017-10-06T11:01:01.439Z,99379.78
2017-10-06T11:03:29.559Z,99383.39
2017-10-06T11:05:57.066Z,99390.02
2017-10-06T11:08:25.001Z,99377.98
2017-10-06T11:10:52.452Z,99377.48
2017-10-06T11:13:19.956Z,99375.81
2017-10-06T11:15:47.425Z,99377.48
2017-10-06T11:18:14.906Z,99371.02
2017-10-06T11:20:42.640Z,99363.30
2017-10-06T11:23:10.204Z,99361.86
2017-10-06T11:25:37.700Z,99356.56
2017-10-06T11:28:05.189Z,99354.98
2017-10-06T11:30:32.734Z,99355.89
2017-10-06T11:33:00.236Z,99343.16
2017-10-06T11:35:27.717Z,99343.81
2017-10-06T11:37:55.255Z,99346.71
2017-10-06T11:40:22.780Z,99329.38
2017-10-06T11:42:50.332Z,99321.27
2017-10-06T11:45:17.835Z,99308.03
2017-10-06T11:47:45.330Z,99314.87
2017-10-06T11:50:12.831Z,99328.95
2017-10-06T11:52:40.319Z,99323.27
2017-10-06T11:55:07.865Z,99316.61
2017-10-06T11:57:35.355Z,99321.08
2017-10-06T12:00:02.875Z,99325.56
2017-10-06T12:02:30.334Z,99317.42
2017-10-06T12:04:57.862Z,99324.27
2017-10-06T12:07:25.322Z,99319.72
2017-10-06T12:09:53.622Z,99313.43
2017-10-06T12:12:21.091Z,99318.23
2017-10-06T12:14:48.662Z,99318.52
2017-10-06T12:17:16.222Z,99322.52
2017-10-06T12:19:43.765Z,99316.20
2017-10-06T12:22:11.266Z,99308.09
2017-10-06T12:24:38.749Z,99316.58
2017-10-06T12:27:06.236Z,99329.84
2017-10-06T12:29:33.747Z,99324.69
2017-10-06T12:32:01.261Z,99325.13
2017-10-06T12:34:28.721Z,99340.66
2017-10-06T12:36:56.253Z,99343.45
2017-10-06T12:39:23.751Z,99344.24
2017-10-06T12:41:51.199Z,99351.11
2017-10-06T12:44:18.720Z,99348.31
2017-10-06T12:46:46.203Z,99361.54
2017-10-06T12:49:13.684Z,99366.50
2017-10-06T12:51:41.175Z,99361.86
2017-10-06T12:54:08.645Z,99356.97
2017-10-06T12:56:36.181Z,99361.61
2017-10-06T12:59:03.666Z,99366.51
2017-10-06T13:01:31.137Z,99361.33
2017-10-06T13:03:58.629Z,99361.45
2017-10-06T13:06:26.174Z,99356.80
2017-10-06T13:08:53.654Z,99363.30
2017-10-06T13:11:21.168Z,99365.28
2017-10-06T13:13:48.697Z,99370.59
2017-10-06T13:16:16.214Z,99375.39
2017-10-06T13:18:43.840Z,99381.88
2017-10-06T13:21:11.331Z,99374.98
2017-10-06T13:23:39.569Z,99374.84
2017-10-06T13:26:07.042Z,99368.22
2017-10-06T13:28:34.500Z,99371.81
2017-10-06T13:31:01.973Z,99376.58
2017-10-06T13:33:29.473Z,99382.28
2017-10-06T13:35:56.953Z,99382.27
2017-10-06T13:38:24.455Z,99389.97
2017-10-06T13:40:51.933Z,99382.25
2017-10-06T13:43:19.426Z,99391.97
2017-10-06T13:45:46.939Z,99394.75
2017-10-06T13:48:14.442Z,99394.34
2017-10-06T13:50:42.002Z,99405.35
2017-10-06T13:53:09.507Z,99404.30
2017-10-06T13:55:37.001Z,99408.91
2017-10-06T13:58:06.962Z,99408.09
2017-10-06T14:00:34.454Z,99395.96
2017-10-06T14:03:01.960Z,99401.92
2017-10-06T14:05:29.594Z,99396.53
2017-10-06T14:07:57.056Z,99386.55
2017-10-06T14:10:24.564Z,99401.52
2017-10-06T14:12:52.101Z,99390.83
2017-10-06T14:15:19.612Z,99388.18
2017-10-06T14:17:47.093Z,99395.09
2017-10-06T14:20:14.570Z,99396.95
2017-10-06T14:22:42.052Z,99393.48
2017-10-06T14:25:09.498Z,99387.48
2017-10-06T14:27:37.089Z,99395.17
2017-10-06T14:30:04.557Z,99395.21
2017-10-06T14:32:32.041Z,99396.91
2017-10-06T14:34:59.554Z,99393.72
2017-10-06T14:37:27.058Z,99394.59
2017-10-06T14:39:54.562Z,99397.01
2017-10-06T14:42:22.050Z,99394.23
2017-10-06T14:44:49.556Z,99398.22
2017-10-06T14:47:17.094Z,99397.13
2017-10-06T14:49:44.657Z,99390.47
2017-10-06T14:52:12.153Z,99385.14
2017-10-06T14:54:39.677Z,99378.34
2017-10-06T14:57:07.150Z,99392.34
2017-10-06T14:59:34.659Z,99389.73
2017-10-06T15:02:02.126Z,99384.86
2017-10-06T15:04:29.613Z,99395.86
2017-10-06T15:06:57.182Z,99395.27
2017-10-06T15:09:24.745Z,99397.39
2017-10-06T15:11:52.259Z,99393.71
2017-10-06T15:14:19.730Z,99413.63
2017-10-06T15:16:47.327Z,99414.90
2017-10-06T15:19:14.792Z,99408.52
2017-10-06T15:21:42.301Z,99414.09
2017-10-06T15:24:09.769Z,99412.92
2017-10-06T15:26:38.475Z,99412.77
2017-10-06T15:29:05.984Z,99413.30
2017-10-06T15:31:34.182Z,99408.11
2017-10-06T15:34:01.667Z,99412.75
2017-10-06T15:36:29.227Z,99413.92
2017-10-06T15:38:56.724Z,99423.61
2017-10-06T15:41:24.215Z,99431.98
2017-10-06T15:43:52.141Z,99431.94
2017-10-06T15:46:20.526Z,99431.09
2017-10-06T15:48:48.041Z,99440.14
2017-10-06T15:51:15.551Z,99442.95
2017-10-06T15:53:43.786Z,99445.73
2017-10-06T15:56:11.347Z,99455.15
2017-10-06T15:58:38.814Z,99452.90
2017-10-06T16:01:06.325Z,99451.29
2017-10-06T16:03:33.779Z,99454.63
2017-10-06T16:06:01.527Z,99460.63
2017-10-06T16:08:29.051Z,99454.42
2017-10-06T16:10:57.393Z,99462.91
2017-10-06T16:13:24.893Z,99459.84
2017-10-06T16:15:52.339Z,99465.17
2017-10-06T16:18:19.884Z,99473.27
2017-10-06T16:20:47.342Z,99480.67
2017-10-06T16:23:14.831Z,99486.64
2017-10-06T16:25:42.289Z,99495.41
2017-10-06T16:28:09.796Z,99485.73
2017-10-06T16:30:37.318Z,99492.63
2017-10-06T16:33:04.793Z,99487.08
2017-10-06T16:35:32.278Z,99485.06
2017-10-06T16:37:59.833Z,99492.90
2017-10-06T16:40:27.327Z,99496.09
2017-10-06T16:42:54.792Z,99497.54
2017-10-06T16:45:22.337Z,99490.63
2017-10-06T16:47:49.784Z,99491.30
2017-10-06T16:50:17.287Z,99489.70
2017-10-06T16:52:44.823Z,99486.92
2017-10-06T16:55:12.264Z,99491.05
2017-10-06T16:57:39.772Z,99499.94
2017-10-06T17:00:07.561Z,99500.31
2017-10-06T17:02:35.065Z,99500.19
2017-10-06T17:05:02.560Z,99508.53
2017-10-06T17:07:30.121Z,99519.95
2017-10-06T17:09:57.608Z,99523.27
2017-10-06T17:12:25.093Z,99521.80
2017-10-06T17:14:52.600Z,99526.30
2017-10-06T17:17:20.102Z,99528.94
2017-10-06T17:19:47.621Z,99533.72
2017-10-06T17:22:15.076Z,99538.77
2017-10-06T17:24:42.833Z,99544.44
2017-10-06T17:27:10.324Z,99544.03
2017-10-06T17:29:37.793Z,99553.43
2017-10-06T17:32:05.690Z,99563.09
2017-10-06T17:34:33.173Z,99567.58
2017-10-06T17:37:00.765Z,99569.45
2017-10-06T17:39:28.242Z,99579.91
2017-10-06T17:41:55.764Z,99585.45
2017-10-06T17:44:23.218Z,99588.91
2017-10-06T17:46:50.903Z,99593.28
2017-10-06T17:49:18.383Z,99598.31
2017-10-06T17:51:45.854Z,99607.55
2017-10-06T17:54:13.337Z,99605.16
2017-10-06T17:56:40.817Z,99612.89
2017-10-06T17:59:08.338Z,99616.33
2017-10-06T18:01:36.973Z,99604.80
2017-10-06T18:04:04.477Z,99608.62
2017-10-06T18:06:31.941Z,99612.31
2017-10-06T18:08:59.427Z,99615.64
2017-10-06T18:11:26.890Z,99614.33
2017-10-06T18:13:54.358Z,99616.48
2017-10-06T18:16:21.837Z,99626.33
2017-10-06T18:18:49.337Z,99635.08
2017-10-06T18:21:16.905Z,99623.16
2017-10-06T18:23:44.362Z,99631.77
2017-10-06T18:26:11.910Z,99628.66
2017-10-06T18:28:40.220Z,99634.09
2017-10-06T18:31:07.696Z,99637.99
2017-10-06T18:33:35.244Z,99634.42
2017-10-06T18:36:02.739Z,99632.82
2017-10-06T18:38:30.263Z,99635.34
2017-10-06T18:40:57.746Z,99637.92
2017-10-06T18:43:25.257Z,99640.58
2017-10-06T18:45:52.713Z,99647.19
2017-10-06T18:48:20.196Z,99650.27
2017-10-06T18:50:47.676Z,99654.00
2017-10-06T18:53:15.153Z,99657.80
2017-10-06T18:55:42.889Z,99661.92
2017-10-06T18:58:10.349Z,99662.55
2017-10-06T19:00:37.849Z,99663.47
2017-10-06T19:03:05.309Z,99666.20
2017-10-06T19:05:32.812Z,99665.53
2017-10-06T19:08:00.253Z,99673.13
2017-10-06T19:10:27.788Z,99673.44
2017-10-06T19:12:55.229Z,99674.97
2017-10-06T19:15:22.736Z,99673.60
2017-10-06T19:17:50.205Z,99679.63
2017-10-06T19:20:17.690Z,99680.55
2017-10-06T19:22:45.210Z,99680.06
2017-10-06T19:25:12.678Z,99682.09
2017-10-06T19:27:40.161Z,99685.35
2017-10-06T19:30:07.625Z,99691.51
2017-10-06T19:32:35.149Z,99697.06
2017-10-06T19:35:02.617Z,99686.64
2017-10-06T19:37:30.106Z,99697.77
2017-10-06T19:39:57.605Z,99700.16
2017-10-06T19:42:25.107Z,99701.38
2017-10-06T19:44:56.017Z,99702.27
2017-10-06T19:47:23.466Z,99703.23
2017-10-06T19:49:50.982Z,99714.13
2017-10-06T19:52:18.456Z,99716.52
2017-10-06T19:54:46.040Z,99725.15
2017-10-06T19:59:46.300Z,99729.41
2017-10-06T20:09:52.093Z,99725.50
2017-10-06T20:12:19.593Z,99720.12
2017-10-06T20:17:19.869Z,99720.33
2017-10-06T20:24:52.981Z,99728.42
2017-10-06T20:29:53.313Z,99727.70
2017-10-06T20:34:54.342Z,99732.11
2017-10-06T20:39:54.711Z,99731.91
2017-10-06T20:42:22.173Z,99736.25
2017-10-06T20:52:28.720Z,99733.58
2017-10-06T20:57:28.916Z,99742.83
2017-10-06T20:59:56.429Z,99751.11
2017-10-06T21:07:29.641Z,99769.48
2017-10-06T21:15:02.497Z,99764.02
2017-10-06T21:20:02.634Z,99778.48
2017-10-06T21:22:30.088Z,99776.30
2017-10-06T21:30:03.000Z,99780.94
2017-10-06T21:37:35.914Z,99771.08
2017-10-06T21:40:03.377Z,99769.66
2017-10-06T21:47:36.544Z,99769.81
2017-10-06T21:50:04.905Z,99775.31
2017-10-06T21:57:38.270Z,99782.44
2017-10-06T22:00:05.817Z,99784.25
2017-10-06T22:02:33.272Z,99787.17
2017-10-06T22:15:13.857Z,99799.07
2017-10-06T22:20:14.172Z,99799.28
2017-10-06T22:27:47.960Z,99790.52
2017-10-06T22:30:15.429Z,99791.11
2017-10-06T22:42:54.118Z,99794.62
2017-10-06T22:45:21.589Z,99795.84
2017-10-06T22:50:21.805Z,99798.91
2017-10-06T22:55:23.114Z,99798.56
2017-10-06T22:57:50.613Z,99802.50
2017-10-06T23:00:18.079Z,99794.83
2017-10-06T23:02:45.570Z,99806.06
2017-10-06T23:07:46.169Z,99813.89
2017-10-06T23:10:13.685Z,99812.48
2017-10-06T23:12:41.162Z,99807.73
2017-10-06T23:20:14.422Z,99813.55
2017-10-06T23:30:20.300Z,99821.03
2017-10-06T23:32:47.814Z,99829.05
2017-10-06T23:35:15.280Z,99819.81
2017-10-06T23:37:42.806Z,99826.05
2017-10-06T23:42:43.169Z,99819.73
2017-10-06T23:50:16.408Z,99838.06
2017-10-06T23:52:44.587Z,99832.71
2017-10-06T23:57:45.709Z,99824.38
